createdAt,value
2018-09-19T00:02:49.755Z,7.03
2018-09-19T00:12:53.335Z,6.87
2018-09-19T00:22:56.924Z,6.63
2018-09-19T00:33:00.502Z,7.07
2018-09-19T00:43:04.094Z,6.93
2018-09-19T00:53:07.691Z,7.67
2018-09-19T01:03:11.297Z,7.57
2018-09-19T01:13:14.867Z,7.50
2018-09-19T01:23:18.404Z,7.83
2018-09-19T01:33:22.030Z,8.03
2018-09-19T01:43:25.667Z,8.80
2018-09-19T01:53:29.347Z,8.07
2018-09-19T02:03:32.937Z,9.03
2018-09-19T02:13:36.502Z,8.10
2018-09-19T02:23:40.138Z,7.00
2018-09-19T02:33:43.770Z,7.63
2018-09-19T02:43:47.819Z,7.23
2018-09-19T02:53:51.441Z,7.13
2018-09-19T03:03:55.101Z,6.93
2018-09-19T03:13:58.832Z,7.00
2018-09-19T03:24:03.418Z,7.10
2018-09-19T03:34:07.673Z,6.40
2018-09-19T03:44:11.226Z,6.40
2018-09-19T03:54:14.800Z,6.33
2018-09-19T04:04:18.474Z,6.83
2018-09-19T04:14:23.011Z,6.27
2018-09-19T04:24:26.634Z,6.03
2018-09-19T04:34:30.257Z,5.73
2018-09-19T04:44:33.887Z,5.97
2018-09-19T04:54:37.446Z,7.07
2018-09-19T05:04:41.013Z,7.17
2018-09-19T05:14:44.787Z,6.60
2018-09-19T05:24:48.318Z,6.97
2018-09-19T05:34:51.931Z,7.33
2018-09-19T05:44:55.575Z,6.67
2018-09-19T05:54:59.161Z,7.27
2018-09-19T06:05:02.960Z,7.50
2018-09-19T06:15:06.516Z,7.40
2018-09-19T06:25:10.119Z,8.03
2018-09-19T06:35:13.794Z,7.70
2018-09-19T06:45:17.549Z,7.45
2018-09-19T06:55:21.188Z,7.00
2018-09-19T07:05:24.835Z,6.27
2018-09-19T07:15:28.449Z,6.50
2018-09-19T07:25:32.763Z,6.43
2018-09-19T07:35:36.577Z,6.00
2018-09-19T07:45:40.226Z,6.00
2018-09-19T07:55:43.859Z,6.00
2018-09-19T08:05:47.487Z,6.37
2018-09-19T08:15:51.123Z,5.93
2018-09-19T08:25:54.730Z,6.23
2018-09-19T08:35:58.464Z,5.83
2018-09-19T08:46:02.190Z,5.30
2018-09-19T08:56:05.805Z,5.30
2018-09-19T09:06:09.469Z,5.08
2018-09-19T09:16:13.088Z,5.13
2018-09-19T09:26:16.687Z,4.77
2018-09-19T09:36:20.392Z,5.27
2018-09-19T09:46:24.152Z,4.53
2018-09-19T09:56:27.762Z,4.37
2018-09-19T10:06:31.447Z,4.57
2018-09-19T10:16:35.152Z,4.27
2018-09-19T10:26:38.763Z,4.53
2018-09-19T10:36:42.361Z,4.23
2018-09-19T10:46:46.077Z,4.40
2018-09-19T10:56:49.797Z,3.97
2018-09-19T11:06:53.432Z,3.83
2018-09-19T11:16:57.056Z,3.53
2018-09-19T11:27:00.628Z,3.80
2018-09-19T11:37:04.247Z,4.17
2018-09-19T11:47:07.877Z,3.83
2018-09-19T11:57:11.482Z,3.70
2018-09-19T12:07:15.130Z,3.57
2018-09-19T12:17:18.764Z,4.00
2018-09-19T12:27:22.461Z,3.77
2018-09-19T12:37:26.073Z,4.03
2018-09-19T12:47:29.673Z,3.70
2018-09-19T12:57:33.279Z,3.67
2018-09-19T13:07:36.918Z,3.23
2018-09-19T13:17:40.686Z,3.40
2018-09-19T13:27:44.268Z,3.70
2018-09-19T13:37:48.799Z,3.70
2018-09-19T13:47:52.438Z,3.60
2018-09-19T13:57:56.041Z,3.27
2018-09-19T14:07:59.652Z,3.33
2018-09-19T14:18:04.571Z,3.57
2018-09-19T14:28:08.258Z,3.13
2018-09-19T14:38:12.501Z,3.30
2018-09-19T14:48:16.209Z,3.60
2018-09-19T14:58:19.775Z,3.60
2018-09-19T15:08:23.468Z,3.77
2018-09-19T15:18:27.096Z,3.27
2018-09-19T15:28:30.876Z,3.33
2018-09-19T15:38:34.410Z,3.37
2018-09-19T15:48:38.050Z,4.20
2018-09-19T15:58:42.836Z,3.80
2018-09-19T16:08:46.638Z,3.77
2018-09-19T16:18:50.198Z,4.00
2018-09-19T16:28:53.822Z,4.20
2018-09-19T16:38:57.543Z,4.10
2018-09-19T16:49:01.127Z,4.83
2018-09-19T16:59:07.554Z,5.20
2018-09-19T17:09:11.338Z,4.53
2018-09-19T17:19:15.056Z,4.87
2018-09-19T17:29:18.818Z,4.80
2018-09-19T17:39:22.634Z,4.87
2018-09-19T17:49:26.301Z,4.90
2018-09-19T17:59:29.964Z,4.60
2018-09-19T18:09:34.194Z,4.47
2018-09-19T18:19:37.804Z,4.33
2018-09-19T18:29:41.339Z,4.37
2018-09-19T18:39:45.423Z,4.90
2018-09-19T18:49:49.020Z,4.87
2018-09-19T18:59:52.632Z,5.13
2018-09-19T19:09:56.278Z,5.40
2018-09-19T19:19:59.983Z,5.03
2018-09-19T19:30:04.259Z,5.47
2018-09-19T19:40:07.841Z,5.20
2018-09-19T19:50:11.423Z,5.33
2018-09-19T20:00:15.055Z,5.37
2018-09-19T20:10:18.666Z,5.30
2018-09-19T20:20:22.253Z,4.43
2018-09-19T20:30:25.910Z,6.10
2018-09-19T20:40:29.516Z,6.70
2018-09-19T20:50:33.097Z,5.50
2018-09-19T21:00:36.690Z,5.83
2018-09-19T21:10:40.316Z,6.17
2018-09-19T21:20:43.894Z,6.90
2018-09-19T21:30:47.467Z,6.47
2018-09-19T21:40:51.149Z,6.00
2018-09-19T21:50:54.635Z,5.90
2018-09-19T22:01:03.685Z,6.20
2018-09-19T22:11:07.309Z,6.10
2018-09-19T22:21:10.873Z,6.43
2018-09-19T22:31:14.450Z,5.63
2018-09-19T22:41:18.571Z,5.33
2018-09-19T22:51:22.844Z,5.73
2018-09-19T23:01:26.519Z,5.80
2018-09-19T23:11:30.517Z,6.07
2018-09-19T23:21:34.665Z,5.07
2018-09-19T23:31:38.244Z,5.07
2018-09-19T23:41:41.846Z,6.00
2018-09-19T23:51:45.452Z,5.27
